Eugene, OR (97404)

2:38 AM PDT en Noviembre 01, 2014 (GMT -0700)
Santa Clara | Change Station
CLOSE
Current Station
Estación meteorológica personal
Location: Eugene, OR
Altura: 406 ft
Estaciones meteorológicas cercanas

Alt 406 ft 44.11 °N, 123.15 °W | Updated 2 seconds ago

Parcialmente nublado
Parcialmente nublado
47.6 ° F
Sensación térmica 48 ° F
N
0.0
Viento Variable Viento desde NNE
Gusts 0.0 mph

Hoy
Alta -- | Baja -- ° F
--% Posibilidad de precipitaciones
Ayer
Alta -- | Baja -- ° F
Precip. -- pul
7:49 AM 6:02 PM
Gibosa creciente, 64% visible
Presión 29.83 pul
Visibilidad 10.0 Millas
Nubes Muy nublado 1400 ft
Vientos helados 48 ° F
Punto de rocío 42 ° F
Humedad 82%
Precipitaciones 0.00 pul
Espesor de la nieve No disponible.
UV 0 de una escala de 12
Polen .30 de una escala de 12
Calidad del aire No disponible.
Flu Activity No disponible.
SPECI KEUG 010932Z AUTO 00000KT 10SM BKN014 08/06 A2983 RMK AO2 T00780061

More Conditions Fewer Conditions

Presión 29.83 pul
Visibilidad 10.0 Millas
Nubes Muy nublado 1400 ft
Vientos helados 48 ° F
Punto de rocío 42 ° F
Humedad 82%
Precipitaciones 0.00 pul
Espesor de la nieve No disponible.
UV 0 de una escala de 12
Polen .30 de una escala de 12
Calidad del aire No disponible.
Flu Activity No disponible.
SPECI KEUG 010932Z AUTO 00000KT 10SM BKN014 08/06 A2983 RMK AO2 T00780061

More Conditions Fewer Conditions

10-Day Weather Forecast

Almanac

Astronomía

Nov. 01, 2014 Salida Puesta
Hora real
Crepúsculo civil
Crepúsculo náutico
Crepúsculo astronómico
Luna
Horas de luz
Horas de luz
Tomorrow will be .
, % of the Moon is Illuminated

Extremos de hoy

Máximos del estado Bajos del estado

Community

WunderPhotos

Upload Photos

1,766,872 ¡fotos cargadas!

WunderBlogs® & News

Nearby

Calidad del aire

  Calidad del aire Índice AQ Contaminante
Not available.

Grosos de nieve

Estación Profundido Altura

Actividad de terremotos

Ciudad Distance Mag. Tiempo y dato
Magnitud mínima muestra es 2,5.

Temperaturas de aguas costeras

Lugar Temperatura

Estaciones meteorológicas cercanas